createdAt,value
2022-11-25T00:00:02.603Z,1016
2022-11-25T00:02:03.878Z,1016
2022-11-25T00:04:08.591Z,1016
2022-11-25T00:06:01.921Z,1017
2022-11-25T00:08:07.203Z,1017
2022-11-25T00:12:01.881Z,1017
2022-11-25T00:14:01.963Z,1017
2022-11-25T00:18:04.669Z,1017
2022-11-25T00:22:04.444Z,1017
2022-11-25T00:24:01.997Z,1017
2022-11-25T00:26:08.152Z,1016
2022-11-25T00:28:08.480Z,1016
2022-11-25T00:30:01.891Z,1016
2022-11-25T00:32:07.622Z,1016
2022-11-25T00:34:08.535Z,1016
2022-11-25T00:36:06.775Z,1017
2022-11-25T00:38:01.935Z,1017
2022-11-25T00:42:01.883Z,1016
2022-11-25T00:44:02.038Z,1016
2022-11-25T00:48:01.926Z,1016
2022-11-25T00:50:05.487Z,1017
2022-11-25T00:54:02.115Z,1016
2022-11-25T00:56:01.926Z,1016
2022-11-25T01:00:02.357Z,1016
2022-11-25T01:02:02.095Z,1016
2022-11-25T01:06:01.900Z,1016
2022-11-25T01:08:01.929Z,1016
2022-11-25T01:12:01.891Z,1016
2022-11-25T01:14:02.075Z,1016
2022-11-25T01:18:01.898Z,1017
2022-11-25T01:20:01.979Z,1017
2022-11-25T01:24:02.019Z,1016
2022-11-25T01:26:04.076Z,1016
2022-11-25T01:30:01.931Z,1017
2022-11-25T01:32:01.976Z,1016
2022-11-25T01:34:08.568Z,1016
2022-11-25T01:36:01.925Z,1016
2022-11-25T01:38:01.947Z,1016
2022-11-25T01:40:07.708Z,1016
2022-11-25T01:42:01.914Z,1016
2022-11-25T01:48:01.898Z,1016
2022-11-25T01:50:01.954Z,1016
2022-11-25T01:54:01.956Z,1016
2022-11-25T01:56:01.931Z,1016
2022-11-25T01:58:08.411Z,1016
2022-11-25T02:00:03.482Z,1016
2022-11-25T02:02:02.021Z,1016
2022-11-25T02:06:02.385Z,1016
2022-11-25T02:08:01.899Z,1016
2022-11-25T02:10:08.791Z,1016
2022-11-25T02:14:01.939Z,1016
2022-11-25T02:16:08.629Z,1016
2022-11-25T02:18:05.464Z,1016
2022-11-25T02:20:01.939Z,1016
2022-11-25T02:24:02.108Z,1017
2022-11-25T02:26:08.227Z,1017
2022-11-25T02:28:06.909Z,1016
2022-11-25T02:30:01.917Z,1016
2022-11-25T02:32:02.012Z,1016
2022-11-25T02:36:05.920Z,1016
2022-11-25T02:38:06.526Z,1016
2022-11-25T02:42:06.383Z,1016
2022-11-25T02:44:02.613Z,1016
2022-11-25T02:46:08.794Z,1016
2022-11-25T02:48:01.943Z,1016
2022-11-25T02:50:02.299Z,1016
2022-11-25T02:54:02.461Z,1016
2022-11-25T02:58:07.725Z,1016
2022-11-25T03:00:02.003Z,1016
2022-11-25T03:02:01.951Z,1016
2022-11-25T03:06:01.951Z,1016
2022-11-25T03:08:01.908Z,1016
2022-11-25T03:12:01.902Z,1016
2022-11-25T03:14:07.224Z,1016
2022-11-25T03:18:08.237Z,1016
2022-11-25T03:20:02.252Z,1016
2022-11-25T03:24:07.061Z,1016
2022-11-25T03:26:01.919Z,1016
2022-11-25T03:28:07.650Z,1016
2022-11-25T03:30:01.922Z,1016
2022-11-25T03:32:05.428Z,1016
2022-11-25T03:34:08.742Z,1016
2022-11-25T03:36:01.946Z,1016
2022-11-25T03:38:01.908Z,1016
2022-11-25T03:40:08.289Z,1016
2022-11-25T03:42:02.347Z,1016
2022-11-25T03:44:06.426Z,1016
2022-11-25T03:46:08.772Z,1016
2022-11-25T03:48:01.952Z,1016
2022-11-25T03:50:01.917Z,1016
2022-11-25T03:54:02.038Z,1016
2022-11-25T03:56:04.166Z,1016
2022-11-25T03:58:07.300Z,1016
2022-11-25T04:00:06.809Z,1016
2022-11-25T04:02:02.023Z,1016
2022-11-25T04:04:07.794Z,1016
2022-11-25T04:06:07.163Z,1016
2022-11-25T04:08:01.977Z,1016
2022-11-25T04:10:08.800Z,1016
2022-11-25T04:12:01.923Z,1016
2022-11-25T04:14:02.099Z,1016
2022-11-25T04:18:07.687Z,1016
2022-11-25T04:20:07.331Z,1016
2022-11-25T04:22:02.415Z,1016
2022-11-25T04:24:05.642Z,1016
2022-11-25T04:26:01.915Z,1016
2022-11-25T04:30:01.937Z,1016
2022-11-25T04:36:01.971Z,1016
2022-11-25T04:38:01.932Z,1016
2022-11-25T04:40:08.215Z,1016
2022-11-25T04:42:01.947Z,1016
2022-11-25T04:44:01.943Z,1016
2022-11-25T04:46:14.997Z,1016
2022-11-25T04:48:04.204Z,1016
2022-11-25T04:50:04.121Z,1016
2022-11-25T04:54:02.484Z,1016
2022-11-25T04:56:01.922Z,1016
2022-11-25T05:00:02.418Z,1016
2022-11-25T05:02:02.017Z,1016
2022-11-25T05:04:08.775Z,1017
2022-11-25T05:06:01.940Z,1016
2022-11-25T05:08:02.051Z,1016
2022-11-25T05:12:06.380Z,1016
2022-11-25T05:14:05.773Z,1016
2022-11-25T05:16:08.578Z,1016
2022-11-25T05:18:01.933Z,1016
2022-11-25T05:20:02.657Z,1016
2022-11-25T05:24:05.743Z,1016
2022-11-25T05:26:02.050Z,1016
2022-11-25T05:30:01.985Z,1016
2022-11-25T05:32:01.983Z,1016
2022-11-25T05:34:08.616Z,1016
2022-11-25T05:36:01.998Z,1016
2022-11-25T05:38:01.919Z,1016
2022-11-25T05:42:07.705Z,1016
2022-11-25T05:44:01.958Z,1016
2022-11-25T05:46:08.772Z,1016
2022-11-25T05:48:01.964Z,1017
2022-11-25T05:50:01.964Z,1017
2022-11-25T05:54:02.164Z,1016
2022-11-25T05:56:01.952Z,1017
2022-11-25T05:58:06.623Z,1017
2022-11-25T06:00:04.736Z,1016
2022-11-25T06:02:01.993Z,1017
2022-11-25T06:04:06.219Z,1017
2022-11-25T06:06:01.956Z,1016
2022-11-25T06:08:05.475Z,1017
2022-11-25T06:12:04.549Z,1017
2022-11-25T06:14:02.035Z,1017
2022-11-25T06:18:02.386Z,1017
2022-11-25T06:20:04.217Z,1017
2022-11-25T06:22:08.176Z,1017
2022-11-25T06:24:07.587Z,1017
2022-11-25T06:26:01.963Z,1017
2022-11-25T06:30:01.976Z,1017
2022-11-25T06:32:08.655Z,1017
2022-11-25T06:34:05.051Z,1017
2022-11-25T06:36:07.059Z,1017
2022-11-25T06:38:07.611Z,1017
2022-11-25T06:42:01.971Z,1017
2022-11-25T06:44:07.051Z,1017
2022-11-25T06:46:08.221Z,1017
2022-11-25T06:48:01.965Z,1017
2022-11-25T06:50:01.928Z,1017
2022-11-25T06:54:02.343Z,1017
2022-11-25T06:56:04.180Z,1017
2022-11-25T06:58:20.490Z,1017
2022-11-25T07:00:02.219Z,1017
2022-11-25T07:02:02.052Z,1017
2022-11-25T07:06:01.933Z,1017
2022-11-25T07:09:47.342Z,1017
2022-11-25T07:13:53.618Z,1017
2022-11-25T07:17:38.097Z,1017
2022-11-25T07:19:38.441Z,1017
2022-11-25T07:21:40.430Z,1017
2022-11-25T07:23:39.762Z,1017
2022-11-25T07:25:37.752Z,1017
2022-11-25T07:30:03.465Z,1017
2022-11-25T07:31:34.866Z,1017
2022-11-25T07:35:34.521Z,1017
2022-11-25T07:37:39.213Z,1017
2022-11-25T07:39:39.945Z,1017
2022-11-25T07:41:39.147Z,1017
2022-11-25T07:43:39.969Z,1017
2022-11-25T07:45:40.199Z,1017
2022-11-25T07:47:33.767Z,1017
2022-11-25T07:49:36.141Z,1017
2022-11-25T07:53:33.764Z,1017
2022-11-25T07:55:35.914Z,1017
2022-11-25T07:59:37.469Z,1017
2022-11-25T08:01:33.854Z,1017
2022-11-25T08:03:40.398Z,1017
2022-11-25T08:07:36.598Z,1018
2022-11-25T08:11:39.039Z,1018
2022-11-25T08:13:38.230Z,1018
2022-11-25T08:15:40.369Z,1018
2022-11-25T08:17:33.820Z,1018
2022-11-25T08:19:37.388Z,1018
2022-11-25T08:23:33.810Z,1018
2022-11-25T08:25:33.793Z,1018
2022-11-25T08:27:40.342Z,1018
2022-11-25T08:29:35.771Z,1018
2022-11-25T08:31:38.297Z,1018
2022-11-25T08:35:37.643Z,1018
2022-11-25T08:37:33.693Z,1018
2022-11-25T08:41:33.834Z,1018
2022-11-25T08:43:35.118Z,1018
2022-11-25T08:45:39.312Z,1018
2022-11-25T08:47:33.808Z,1018
2022-11-25T08:49:39.032Z,1018
2022-11-25T08:53:36.189Z,1018
2022-11-25T08:55:39.570Z,1018
2022-11-25T08:59:39.678Z,1018
2022-11-25T09:01:37.702Z,1018
2022-11-25T09:03:39.931Z,1018
2022-11-25T09:05:35.837Z,1018
2022-11-25T09:07:35.320Z,1018
2022-11-25T09:09:40.564Z,1018
2022-11-25T09:11:33.715Z,1018
2022-11-25T09:13:33.715Z,1018
2022-11-25T09:15:40.401Z,1018
2022-11-25T09:17:37.860Z,1018
2022-11-25T09:19:39.751Z,1018
2022-11-25T09:23:33.798Z,1018
2022-11-25T09:25:33.814Z,1018
2022-11-25T09:27:39.761Z,1018
2022-11-25T09:29:34.188Z,1018
2022-11-25T09:31:36.080Z,1018
2022-11-25T09:35:33.658Z,1018
2022-11-25T09:37:35.299Z,1018
2022-11-25T09:39:40.427Z,1018
2022-11-25T09:41:35.884Z,1018
2022-11-25T09:43:36.822Z,1018
2022-11-25T09:47:34.621Z,1018
2022-11-25T09:49:37.760Z,1018
2022-11-25T09:53:39.229Z,1018
2022-11-25T09:55:35.099Z,1018
2022-11-25T09:59:33.947Z,1018
2022-11-25T10:01:33.666Z,1018
2022-11-25T10:05:33.684Z,1018
2022-11-25T10:07:37.874Z,1018
2022-11-25T10:09:40.536Z,1018
2022-11-25T10:11:33.710Z,1018
2022-11-25T10:13:33.809Z,1018
2022-11-25T10:17:34.056Z,1018
2022-11-25T10:19:37.822Z,1018
2022-11-25T10:21:40.450Z,1018
2022-11-25T10:23:33.835Z,1018
2022-11-25T10:25:33.686Z,1018
2022-11-25T10:29:37.245Z,1018
2022-11-25T10:31:38.829Z,1018
2022-11-25T10:33:40.338Z,1018
2022-11-25T10:35:39.031Z,1018
2022-11-25T10:37:38.578Z,1018
2022-11-25T10:41:36.073Z,1018
2022-11-25T10:43:33.694Z,1018
2022-11-25T10:47:38.781Z,1018
2022-11-25T10:49:33.752Z,1018
2022-11-25T10:53:33.811Z,1018
2022-11-25T10:55:33.670Z,1018
2022-11-25T10:57:40.558Z,1018
2022-11-25T10:59:36.783Z,1018
2022-11-25T11:01:33.752Z,1018
2022-11-25T11:05:35.538Z,1018
2022-11-25T11:07:35.908Z,1018
2022-11-25T11:09:38.599Z,1018
2022-11-25T11:11:33.697Z,1018
2022-11-25T11:13:33.698Z,1018
2022-11-25T11:17:37.613Z,1018
2022-11-25T11:19:33.743Z,1018
2022-11-25T11:23:35.039Z,1018
2022-11-25T11:25:33.824Z,1018
2022-11-25T11:27:40.438Z,1018
2022-11-25T11:29:38.136Z,1018
2022-11-25T11:31:40.901Z,1018
2022-11-25T11:33:36.015Z,1018
2022-11-25T11:35:41.756Z,1018
2022-11-25T11:37:36.092Z,1018
2022-11-25T11:39:40.373Z,1018
2022-11-25T11:41:36.088Z,1018
2022-11-25T11:43:33.704Z,1018
2022-11-25T11:47:38.589Z,1018
2022-11-25T11:49:35.223Z,1018
2022-11-25T11:51:38.904Z,1018
2022-11-25T11:53:33.851Z,1018
2022-11-25T11:55:33.682Z,1018
2022-11-25T11:57:38.976Z,1018
2022-11-25T11:59:33.716Z,1018
2022-11-25T12:01:37.019Z,1018
2022-11-25T12:05:38.539Z,1018
2022-11-25T12:07:33.935Z,1018
2022-11-25T12:11:33.803Z,1018
2022-11-25T12:13:38.231Z,1018
2022-11-25T12:17:34.606Z,1018
2022-11-25T12:19:33.840Z,1018
2022-11-25T12:23:33.728Z,1018
2022-11-25T12:25:35.417Z,1018
2022-11-25T12:27:40.457Z,1018
2022-11-25T12:29:34.182Z,1018
2022-11-25T12:31:39.575Z,1018
2022-11-25T12:33:40.701Z,1018
2022-11-25T12:35:36.196Z,1018
2022-11-25T12:40:35.352Z,1018
2022-11-25T12:40:37.113Z,1018
2022-11-25T12:42:36.554Z,1018
2022-11-25T12:44:41.118Z,1018
2022-11-25T12:46:38.082Z,1018
2022-11-25T12:48:40.583Z,1018
2022-11-25T12:50:37.288Z,1018
2022-11-25T12:52:41.539Z,1018
2022-11-25T12:54:34.996Z,1018
2022-11-25T12:56:34.763Z,1018
2022-11-25T12:58:34.801Z,1018
2022-11-25T13:00:42.210Z,1018
2022-11-25T13:02:37.526Z,1018
2022-11-25T13:04:38.673Z,1018
2022-11-25T13:06:34.761Z,1018
2022-11-25T13:08:34.625Z,1018
2022-11-25T13:12:37.561Z,1018
2022-11-25T13:14:34.966Z,1018
2022-11-25T13:16:37.874Z,1018
2022-11-25T13:18:37.404Z,1018
2022-11-25T13:20:34.714Z,1018
2022-11-25T13:22:37.114Z,1018
2022-11-25T13:26:36.087Z,1018
2022-11-25T13:28:34.761Z,1018
2022-11-25T13:30:34.655Z,1018
2022-11-25T13:32:39.737Z,1018
2022-11-25T13:34:37.100Z,1018
2022-11-25T13:36:38.252Z,1018
2022-11-25T13:38:34.785Z,1018
2022-11-25T13:40:34.701Z,1018
2022-11-25T13:42:36.494Z,1018
2022-11-25T13:44:35.400Z,1018
2022-11-25T13:46:41.092Z,1018
2022-11-25T13:48:40.028Z,1018
2022-11-25T13:50:55.211Z,1018
2022-11-25T13:52:34.634Z,1018
2022-11-25T13:54:39.727Z,1019
2022-11-25T13:56:34.776Z,1019
2022-11-25T13:58:39.173Z,1019
2022-11-25T14:00:36.697Z,1019
2022-11-25T14:02:36.757Z,1019
2022-11-25T14:04:37.137Z,1019
2022-11-25T14:06:38.985Z,1019
2022-11-25T14:08:39.699Z,1019
2022-11-25T14:10:34.761Z,1019
2022-11-25T14:12:37.823Z,1019
2022-11-25T14:14:36.554Z,1019
2022-11-25T14:16:38.621Z,1019
2022-11-25T14:19:12.324Z,1019
2022-11-25T14:20:35.539Z,1019
2022-11-25T14:22:39.564Z,1019
2022-11-25T14:24:34.802Z,1019
2022-11-25T14:26:49.553Z,1019
2022-11-25T14:28:37.188Z,1019
2022-11-25T14:30:34.770Z,1019
2022-11-25T14:32:38.244Z,1019
2022-11-25T14:34:38.814Z,1019
2022-11-25T14:36:40.621Z,1019
2022-11-25T14:38:36.561Z,1019
2022-11-25T14:40:37.404Z,1019
2022-11-25T14:42:38.828Z,1019
2022-11-25T14:44:40.107Z,1019
2022-11-25T14:46:39.902Z,1019
2022-11-25T14:48:35.524Z,1019
2022-11-25T14:50:35.424Z,1019
2022-11-25T14:52:38.583Z,1019
2022-11-25T14:54:34.985Z,1019
2022-11-25T14:56:34.791Z,1019
2022-11-25T14:58:34.758Z,1019
2022-11-25T15:00:34.749Z,1019
2022-11-25T15:02:38.783Z,1019
2022-11-25T15:06:40.860Z,1019
2022-11-25T15:08:34.754Z,1019
2022-11-25T15:10:34.752Z,1019
2022-11-25T15:12:40.600Z,1019
2022-11-25T15:14:40.778Z,1019
2022-11-25T15:16:40.630Z,1020
2022-11-25T15:20:40.383Z,1020
2022-11-25T15:22:38.294Z,1020
2022-11-25T15:24:34.781Z,1020
2022-11-25T15:26:40.190Z,1020
2022-11-25T15:28:38.536Z,1020
2022-11-25T15:30:40.125Z,1020
2022-11-25T15:32:37.509Z,1020
2022-11-25T15:34:38.368Z,1020
2022-11-25T15:36:38.619Z,1020
2022-11-25T15:38:37.875Z,1020
2022-11-25T15:40:41.052Z,1020
2022-11-25T15:42:40.583Z,1020
2022-11-25T15:44:41.316Z,1020
2022-11-25T15:46:39.558Z,1020
2022-11-25T15:48:41.220Z,1020
2022-11-25T15:50:34.770Z,1020
2022-11-25T15:52:36.823Z,1020
2022-11-25T15:54:37.791Z,1020
2022-11-25T15:56:34.792Z,1020
2022-11-25T15:58:34.794Z,1020
2022-11-25T16:00:38.237Z,1020
2022-11-25T16:02:39.769Z,1020
2022-11-25T16:04:34.804Z,1020
2022-11-25T16:06:34.797Z,1020
2022-11-25T16:08:34.809Z,1020
2022-11-25T16:10:34.847Z,1020
2022-11-25T16:12:38.172Z,1020
2022-11-25T16:16:34.833Z,1020
2022-11-25T16:18:40.586Z,1020
2022-11-25T16:20:36.865Z,1020
2022-11-25T16:22:34.810Z,1020
2022-11-25T16:24:34.862Z,1021
2022-11-25T16:26:34.759Z,1021
2022-11-25T16:28:34.803Z,1021
2022-11-25T16:30:38.205Z,1021
2022-11-25T16:32:34.813Z,1021
2022-11-25T16:34:35.080Z,1021
2022-11-25T16:36:34.860Z,1021
2022-11-25T16:38:34.674Z,1021
2022-11-25T16:40:34.813Z,1021
2022-11-25T16:42:34.858Z,1021
2022-11-25T16:44:34.785Z,1021
2022-11-25T16:46:39.124Z,1021
2022-11-25T16:48:34.859Z,1021
2022-11-25T16:50:40.468Z,1021
2022-11-25T16:52:34.777Z,1021
2022-11-25T16:54:34.828Z,1021
2022-11-25T16:56:34.817Z,1021
2022-11-25T16:58:34.766Z,1021
2022-11-25T17:00:34.818Z,1021
2022-11-25T17:02:34.863Z,1021
2022-11-25T17:04:34.781Z,1021
2022-11-25T17:06:34.810Z,1021
2022-11-25T17:08:34.719Z,1021
2022-11-25T17:10:34.771Z,1021
2022-11-25T17:14:34.896Z,1021
2022-11-25T17:16:40.098Z,1021
2022-11-25T17:18:34.792Z,1021
2022-11-25T17:20:34.779Z,1021
2022-11-25T17:22:37.733Z,1021
2022-11-25T17:24:34.838Z,1021
2022-11-25T17:26:37.874Z,1021
2022-11-25T17:28:38.275Z,1021
2022-11-25T17:30:40.012Z,1021
2022-11-25T17:32:39.704Z,1021
2022-11-25T17:34:38.088Z,1021
2022-11-25T17:36:40.197Z,1021
2022-11-25T17:38:34.792Z,1021
2022-11-25T17:40:38.204Z,1021
2022-11-25T17:42:34.824Z,1021
2022-11-25T17:44:35.169Z,1022
2022-11-25T17:46:34.809Z,1021
2022-11-25T17:48:40.705Z,1021
2022-11-25T17:50:36.858Z,1022
2022-11-25T17:52:34.696Z,1022
2022-11-25T17:54:34.700Z,1022
2022-11-25T17:56:34.863Z,1022
2022-11-25T17:58:34.850Z,1022
2022-11-25T18:00:34.848Z,1022
2022-11-25T18:05:41.548Z,1022
2022-11-25T18:07:42.454Z,1022
2022-11-25T18:09:44.015Z,1022
2022-11-25T18:11:42.598Z,1022
2022-11-25T18:13:43.182Z,1022
2022-11-25T18:17:43.194Z,1022
2022-11-25T18:19:42.466Z,1022
2022-11-25T18:21:43.521Z,1022
2022-11-25T18:23:40.947Z,1022
2022-11-25T18:25:40.912Z,1022
2022-11-25T18:27:43.797Z,1022
2022-11-25T18:29:43.513Z,1022
2022-11-25T18:31:39.843Z,1022
2022-11-25T18:35:42.766Z,1022
2022-11-25T18:37:41.459Z,1022
2022-11-25T18:41:43.472Z,1022
2022-11-25T18:43:39.934Z,1022
2022-11-25T18:45:44.115Z,1022
2022-11-25T18:47:42.158Z,1022
2022-11-25T18:49:41.514Z,1022
2022-11-25T18:51:44.055Z,1022
2022-11-25T18:53:40.896Z,1022
2022-11-25T18:55:39.148Z,1022
2022-11-25T18:59:39.632Z,1022
2022-11-25T19:01:48.365Z,1022
2022-11-25T19:03:44.020Z,1022
2022-11-25T19:05:42.837Z,1022
2022-11-25T19:07:43.205Z,1022
2022-11-25T19:09:43.600Z,1023
2022-11-25T19:13:39.079Z,1023
2022-11-25T19:15:43.782Z,1023
2022-11-25T19:17:41.415Z,1023
2022-11-25T19:19:41.835Z,1023
2022-11-25T19:21:43.438Z,1023
2022-11-25T19:23:37.365Z,1023
2022-11-25T19:25:43.252Z,1023
2022-11-25T19:27:42.746Z,1023
2022-11-25T19:29:42.607Z,1023
2022-11-25T19:31:37.371Z,1023
2022-11-25T19:33:42.913Z,1023
2022-11-25T19:35:37.358Z,1023
2022-11-25T19:37:37.234Z,1023
2022-11-25T19:39:44.197Z,1023
2022-11-25T19:41:37.962Z,1023
2022-11-25T19:43:41.381Z,1023
2022-11-25T19:45:44.210Z,1023
2022-11-25T19:47:39.551Z,1023
2022-11-25T19:49:39.433Z,1023
2022-11-25T19:51:42.962Z,1023
2022-11-25T19:53:37.359Z,1023
2022-11-25T19:55:37.298Z,1023
2022-11-25T19:57:42.058Z,1023
2022-11-25T19:59:40.973Z,1023
2022-11-25T20:01:40.967Z,1023
2022-11-25T20:03:47.540Z,1023
2022-11-25T20:05:39.147Z,1024
2022-11-25T20:07:42.294Z,1024
2022-11-25T20:09:43.824Z,1024
2022-11-25T20:11:42.241Z,1024
2022-11-25T20:13:42.717Z,1024
2022-11-25T20:15:44.108Z,1024
2022-11-25T20:17:37.689Z,1024
2022-11-25T20:19:38.809Z,1024
2022-11-25T20:21:43.857Z,1024
2022-11-25T20:23:41.949Z,1024
2022-11-25T20:25:37.411Z,1024
2022-11-25T20:29:43.478Z,1024
2022-11-25T20:31:39.581Z,1024
2022-11-25T20:35:39.104Z,1024
2022-11-25T20:37:42.606Z,1024
2022-11-25T20:39:43.947Z,1024
2022-11-25T20:41:37.369Z,1024
2022-11-25T20:43:40.503Z,1024
2022-11-25T20:45:42.423Z,1024
2022-11-25T20:47:42.394Z,1024
2022-11-25T20:49:37.361Z,1024
2022-11-25T20:51:43.742Z,1024
2022-11-25T20:53:42.726Z,1024
2022-11-25T20:55:41.827Z,1024
2022-11-25T20:57:43.324Z,1024
2022-11-25T20:59:39.790Z,1024
2022-11-25T21:01:42.055Z,1024
2022-11-25T21:05:43.036Z,1024
2022-11-25T21:07:43.318Z,1024
2022-11-25T21:09:43.909Z,1024
2022-11-25T21:11:39.120Z,1025
2022-11-25T21:13:41.467Z,1025
2022-11-25T21:15:43.803Z,1025
2022-11-25T21:17:43.016Z,1025
2022-11-25T21:19:41.407Z,1025
2022-11-25T21:21:43.364Z,1025
2022-11-25T21:23:38.700Z,1025
2022-11-25T21:25:41.350Z,1025
2022-11-25T21:29:37.810Z,1025
2022-11-25T21:31:43.575Z,1025
2022-11-25T21:35:37.398Z,1025
2022-11-25T21:37:37.448Z,1025
2022-11-25T21:41:37.372Z,1025
2022-11-25T21:43:43.037Z,1025
2022-11-25T21:47:42.738Z,1025
2022-11-25T21:49:41.541Z,1025
2022-11-25T21:51:43.040Z,1025
2022-11-25T21:53:41.002Z,1025
2022-11-25T21:55:37.365Z,1025
2022-11-25T21:57:41.697Z,1025
2022-11-25T21:59:37.237Z,1025
2022-11-25T22:01:41.431Z,1025
2022-11-25T22:03:43.760Z,1025
2022-11-25T22:05:37.382Z,1025
2022-11-25T22:07:42.883Z,1025
2022-11-25T22:09:47.803Z,1025
2022-11-25T22:11:43.705Z,1025
2022-11-25T22:13:40.121Z,1025
2022-11-25T22:17:40.640Z,1025
2022-11-25T22:23:38.628Z,1025
2022-11-25T22:25:37.384Z,1025
2022-11-25T22:27:42.986Z,1025
2022-11-25T22:29:37.300Z,1025
2022-11-25T22:31:37.420Z,1025
2022-11-25T22:33:43.924Z,1025
2022-11-25T22:35:37.429Z,1025
2022-11-25T22:37:37.251Z,1025
2022-11-25T22:39:44.122Z,1025
2022-11-25T22:41:39.093Z,1025
2022-11-25T22:43:38.675Z,1025
2022-11-25T22:45:43.685Z,1025
2022-11-25T22:47:41.011Z,1025
2022-11-25T22:49:37.730Z,1025
2022-11-25T22:51:43.742Z,1025
2022-11-25T22:53:41.274Z,1025
2022-11-25T22:55:42.161Z,1026
2022-11-25T22:57:43.450Z,1026
2022-11-25T22:59:37.437Z,1026
2022-11-25T23:01:37.757Z,1026
2022-11-25T23:05:39.426Z,1026
2022-11-25T23:07:37.498Z,1026
2022-11-25T23:11:40.099Z,1026
2022-11-25T23:13:43.627Z,1026
2022-11-25T23:15:43.934Z,1026
2022-11-25T23:17:41.700Z,1026
2022-11-25T23:19:37.406Z,1026
2022-11-25T23:23:37.408Z,1026
2022-11-25T23:25:37.432Z,1026
2022-11-25T23:27:43.840Z,1026
2022-11-25T23:29:37.385Z,1026
2022-11-25T23:31:42.831Z,1026
2022-11-25T23:35:37.398Z,1026
2022-11-25T23:37:41.637Z,1026
2022-11-25T23:41:43.965Z,1026
2022-11-25T23:43:43.279Z,1026
2022-11-25T23:45:44.015Z,1026
2022-11-25T23:47:40.078Z,1026
2022-11-25T23:49:40.990Z,1026
2022-11-25T23:51:43.457Z,1026
2022-11-25T23:53:37.666Z,1026
2022-11-25T23:55:43.344Z,1026
2022-11-25T23:57:44.006Z,1026
2022-11-25T23:59:38.372Z,1026
